sensor_id;sensor_type;location;lat;lon;timestamp;P1;durP1;ratioP1;P2;durP2;ratioP2
76176;SDS011;64938;47.696;8.066;2023-04-03T00:01:10;2.63;;;2.43;;
76176;SDS011;64938;47.696;8.066;2023-04-03T00:03:36;2.57;;;2.37;;
76176;SDS011;64938;47.696;8.066;2023-04-03T00:06:02;2.40;;;2.20;;
76176;SDS011;64938;47.696;8.066;2023-04-03T00:08:28;2.40;;;2.20;;
76176;SDS011;64938;47.696;8.066;2023-04-03T00:10:56;2.70;;;2.50;;
76176;SDS011;64938;47.696;8.066;2023-04-03T00:13:22;2.80;;;2.60;;
76176;SDS011;64938;47.696;8.066;2023-04-03T00:15:48;2.40;;;2.20;;
76176;SDS011;64938;47.696;8.066;2023-04-03T00:18:14;2.77;;;2.20;;
76176;SDS011;64938;47.696;8.066;2023-04-03T00:20:40;3.00;;;2.70;;
76176;SDS011;64938;47.696;8.066;2023-04-03T00:23:05;2.60;;;2.40;;
76176;SDS011;64938;47.696;8.066;2023-04-03T00:25:31;3.00;;;2.70;;
76176;SDS011;64938;47.696;8.066;2023-04-03T00:27:57;3.37;;;2.70;;
76176;SDS011;64938;47.696;8.066;2023-04-03T00:30:23;3.00;;;2.70;;
76176;SDS011;64938;47.696;8.066;2023-04-03T00:32:49;2.83;;;2.57;;
76176;SDS011;64938;47.696;8.066;2023-04-03T00:35:16;2.90;;;2.60;;
76176;SDS011;64938;47.696;8.066;2023-04-03T00:37:42;2.90;;;2.60;;
76176;SDS011;64938;47.696;8.066;2023-04-03T00:40:09;3.13;;;2.80;;
76176;SDS011;64938;47.696;8.066;2023-04-03T00:42:36;2.70;;;2.33;;
76176;SDS011;64938;47.696;8.066;2023-04-03T00:47:28;2.90;;;2.60;;
76176;SDS011;64938;47.696;8.066;2023-04-03T00:49:54;3.00;;;2.70;;
76176;SDS011;64938;47.696;8.066;2023-04-03T00:52:21;3.47;;;3.17;;
76176;SDS011;64938;47.696;8.066;2023-04-03T00:54:50;3.80;;;3.23;;
76176;SDS011;64938;47.696;8.066;2023-04-03T00:57:17;3.50;;;3.03;;
76176;SDS011;64938;47.696;8.066;2023-04-03T00:59:44;4.33;;;3.00;;
76176;SDS011;64938;47.696;8.066;2023-04-03T01:02:12;3.10;;;2.77;;
76176;SDS011;64938;47.696;8.066;2023-04-03T01:04:38;3.63;;;3.00;;
76176;SDS011;64938;47.696;8.066;2023-04-03T01:07:07;3.20;;;2.83;;
76176;SDS011;64938;47.696;8.066;2023-04-03T01:09:37;2.97;;;2.67;;
76176;SDS011;64938;47.696;8.066;2023-04-03T01:14:50;4.43;;;2.60;;
76176;SDS011;64938;47.696;8.066;2023-04-03T01:17:26;3.70;;;2.80;;
76176;SDS011;64938;47.696;8.066;2023-04-03T01:19:57;3.87;;;3.47;;
76176;SDS011;64938;47.696;8.066;2023-04-03T01:28:04;5.60;;;4.27;;
76176;SDS011;64938;47.696;8.066;2023-04-03T01:30:32;7.00;;;4.77;;
76176;SDS011;64938;47.696;8.066;2023-04-03T01:33:01;5.00;;;4.47;;
76176;SDS011;64938;47.696;8.066;2023-04-03T01:35:26;5.37;;;4.50;;
76176;SDS011;64938;47.696;8.066;2023-04-03T01:37:52;7.43;;;4.83;;
76176;SDS011;64938;47.696;8.066;2023-04-03T01:40:18;6.27;;;4.40;;
76176;SDS011;64938;47.696;8.066;2023-04-03T01:42:43;6.00;;;3.90;;
76176;SDS011;64938;47.696;8.066;2023-04-03T01:45:09;5.20;;;4.30;;
76176;SDS011;64938;47.696;8.066;2023-04-03T01:47:35;4.90;;;4.40;;
76176;SDS011;64938;47.696;8.066;2023-04-03T01:50:01;4.63;;;3.97;;
76176;SDS011;64938;47.696;8.066;2023-04-03T01:52:27;4.30;;;3.87;;
76176;SDS011;64938;47.696;8.066;2023-04-03T01:54:53;6.10;;;3.70;;
76176;SDS011;64938;47.696;8.066;2023-04-03T01:57:18;5.03;;;3.97;;
76176;SDS011;64938;47.696;8.066;2023-04-03T01:59:44;4.53;;;3.40;;
76176;SDS011;64938;47.696;8.066;2023-04-03T02:02:10;4.60;;;3.50;;
76176;SDS011;64938;47.696;8.066;2023-04-03T02:04:37;4.63;;;4.00;;
76176;SDS011;64938;47.696;8.066;2023-04-03T02:07:03;4.80;;;3.90;;
76176;SDS011;64938;47.696;8.066;2023-04-03T02:09:31;3.93;;;3.53;;
76176;SDS011;64938;47.696;8.066;2023-04-03T02:11:57;3.30;;;3.00;;
76176;SDS011;64938;47.696;8.066;2023-04-03T02:14:22;3.33;;;3.07;;
76176;SDS011;64938;47.696;8.066;2023-04-03T02:16:49;3.80;;;3.17;;
76176;SDS011;64938;47.696;8.066;2023-04-03T02:19:15;3.80;;;3.50;;
76176;SDS011;64938;47.696;8.066;2023-04-03T02:21:40;2.97;;;2.73;;
76176;SDS011;64938;47.696;8.066;2023-04-03T02:24:06;2.47;;;2.27;;
76176;SDS011;64938;47.696;8.066;2023-04-03T02:26:32;2.97;;;2.73;;
76176;SDS011;64938;47.696;8.066;2023-04-03T02:28:58;3.03;;;2.77;;
76176;SDS011;64938;47.696;8.066;2023-04-03T02:31:23;2.60;;;2.40;;
76176;SDS011;64938;47.696;8.066;2023-04-03T02:33:49;3.00;;;2.70;;
76176;SDS011;64938;47.696;8.066;2023-04-03T02:36:15;3.17;;;2.87;;
76176;SDS011;64938;47.696;8.066;2023-04-03T02:38:41;2.60;;;2.40;;
76176;SDS011;64938;47.696;8.066;2023-04-03T02:41:08;3.23;;;2.70;;
76176;SDS011;64938;47.696;8.066;2023-04-03T02:43:35;2.77;;;2.57;;
76176;SDS011;64938;47.696;8.066;2023-04-03T02:46:01;2.90;;;2.67;;
76176;SDS011;64938;47.696;8.066;2023-04-03T02:48:27;3.40;;;3.10;;
76176;SDS011;64938;47.696;8.066;2023-04-03T02:50:53;3.07;;;2.77;;
76176;SDS011;64938;47.696;8.066;2023-04-03T02:53:19;2.77;;;2.57;;
76176;SDS011;64938;47.696;8.066;2023-04-03T02:55:45;3.63;;;3.13;;
76176;SDS011;64938;47.696;8.066;2023-04-03T02:58:10;4.77;;;4.30;;
76176;SDS011;64938;47.696;8.066;2023-04-03T03:00:38;4.33;;;3.93;;
76176;SDS011;64938;47.696;8.066;2023-04-03T03:03:04;3.83;;;3.50;;
76176;SDS011;64938;47.696;8.066;2023-04-03T03:05:30;4.63;;;4.23;;
76176;SDS011;64938;47.696;8.066;2023-04-03T03:07:56;11.23;;;4.47;;
76176;SDS011;64938;47.696;8.066;2023-04-03T03:10:22;4.80;;;4.20;;
76176;SDS011;64938;47.696;8.066;2023-04-03T03:12:48;7.20;;;4.90;;
76176;SDS011;64938;47.696;8.066;2023-04-03T03:15:14;7.83;;;4.67;;
76176;SDS011;64938;47.696;8.066;2023-04-03T03:17:44;4.93;;;4.37;;
76176;SDS011;64938;47.696;8.066;2023-04-03T03:20:10;5.57;;;4.60;;
76176;SDS011;64938;47.696;8.066;2023-04-03T03:22:37;6.33;;;4.70;;
76176;SDS011;64938;47.696;8.066;2023-04-03T03:25:03;5.30;;;4.40;;
76176;SDS011;64938;47.696;8.066;2023-04-03T03:27:30;5.60;;;4.87;;
76176;SDS011;64938;47.696;8.066;2023-04-03T03:29:55;7.07;;;5.23;;
76176;SDS011;64938;47.696;8.066;2023-04-03T03:32:21;4.80;;;4.40;;
76176;SDS011;64938;47.696;8.066;2023-04-03T03:34:46;5.20;;;4.70;;
76176;SDS011;64938;47.696;8.066;2023-04-03T03:37:12;5.87;;;4.90;;
76176;SDS011;64938;47.696;8.066;2023-04-03T03:39:38;5.53;;;4.93;;
76176;SDS011;64938;47.696;8.066;2023-04-03T03:42:03;7.13;;;5.87;;
76176;SDS011;64938;47.696;8.066;2023-04-03T03:44:29;6.57;;;5.90;;
76176;SDS011;64938;47.696;8.066;2023-04-03T03:46:55;8.40;;;6.50;;
76176;SDS011;64938;47.696;8.066;2023-04-03T03:49:21;10.00;;;6.90;;
76176;SDS011;64938;47.696;8.066;2023-04-03T03:51:47;12.50;;;6.70;;
76176;SDS011;64938;47.696;8.066;2023-04-03T03:54:13;13.30;;;7.73;;
76176;SDS011;64938;47.696;8.066;2023-04-03T03:56:39;12.23;;;7.23;;
76176;SDS011;64938;47.696;8.066;2023-04-03T03:59:05;10.23;;;8.03;;
76176;SDS011;64938;47.696;8.066;2023-04-03T04:01:32;16.17;;;8.63;;
76176;SDS011;64938;47.696;8.066;2023-04-03T04:03:58;15.60;;;8.77;;
76176;SDS011;64938;47.696;8.066;2023-04-03T04:06:23;12.10;;;8.87;;
76176;SDS011;64938;47.696;8.066;2023-04-03T04:08:49;24.40;;;9.50;;
76176;SDS011;64938;47.696;8.066;2023-04-03T04:11:15;17.97;;;9.77;;
76176;SDS011;64938;47.696;8.066;2023-04-03T04:13:41;24.30;;;9.70;;
76176;SDS011;64938;47.696;8.066;2023-04-03T04:16:07;32.73;;;11.30;;
76176;SDS011;64938;47.696;8.066;2023-04-03T04:18:33;20.40;;;9.10;;
76176;SDS011;64938;47.696;8.066;2023-04-03T04:20:59;31.63;;;11.37;;
76176;SDS011;64938;47.696;8.066;2023-04-03T04:23:25;27.27;;;11.50;;
76176;SDS011;64938;47.696;8.066;2023-04-03T04:25:50;27.03;;;10.87;;
76176;SDS011;64938;47.696;8.066;2023-04-03T04:28:16;14.00;;;9.60;;
76176;SDS011;64938;47.696;8.066;2023-04-03T04:30:43;15.60;;;10.90;;
76176;SDS011;64938;47.696;8.066;2023-04-03T04:33:09;15.53;;;10.97;;
76176;SDS011;64938;47.696;8.066;2023-04-03T04:35:35;15.00;;;10.63;;
76176;SDS011;64938;47.696;8.066;2023-04-03T04:38:01;13.40;;;10.37;;
76176;SDS011;64938;47.696;8.066;2023-04-03T04:40:27;13.00;;;10.00;;
76176;SDS011;64938;47.696;8.066;2023-04-03T04:42:53;13.53;;;10.70;;
76176;SDS011;64938;47.696;8.066;2023-04-03T04:45:18;14.17;;;10.23;;
76176;SDS011;64938;47.696;8.066;2023-04-03T04:47:44;33.23;;;12.00;;
76176;SDS011;64938;47.696;8.066;2023-04-03T04:50:10;15.60;;;11.67;;
76176;SDS011;64938;47.696;8.066;2023-04-03T04:52:37;14.50;;;11.27;;
76176;SDS011;64938;47.696;8.066;2023-04-03T04:55:03;25.93;;;12.30;;
76176;SDS011;64938;47.696;8.066;2023-04-03T04:57:29;14.80;;;11.27;;
76176;SDS011;64938;47.696;8.066;2023-04-03T04:59:54;15.07;;;11.40;;
76176;SDS011;64938;47.696;8.066;2023-04-03T05:02:20;15.23;;;10.47;;
76176;SDS011;64938;47.696;8.066;2023-04-03T05:04:46;15.50;;;10.50;;
76176;SDS011;64938;47.696;8.066;2023-04-03T05:07:19;16.70;;;10.97;;
76176;SDS011;64938;47.696;8.066;2023-04-03T05:09:44;13.23;;;10.20;;
76176;SDS011;64938;47.696;8.066;2023-04-03T05:12:10;11.87;;;9.70;;
76176;SDS011;64938;47.696;8.066;2023-04-03T05:14:35;17.07;;;10.83;;
76176;SDS011;64938;47.696;8.066;2023-04-03T05:17:01;12.37;;;9.87;;
76176;SDS011;64938;47.696;8.066;2023-04-03T05:19:27;15.07;;;10.70;;
76176;SDS011;64938;47.696;8.066;2023-04-03T05:21:53;16.37;;;9.90;;
76176;SDS011;64938;47.696;8.066;2023-04-03T05:24:18;13.70;;;9.80;;
76176;SDS011;64938;47.696;8.066;2023-04-03T05:26:44;12.33;;;9.83;;
76176;SDS011;64938;47.696;8.066;2023-04-03T05:29:09;13.10;;;9.90;;
76176;SDS011;64938;47.696;8.066;2023-04-03T05:31:35;14.43;;;10.40;;
76176;SDS011;64938;47.696;8.066;2023-04-03T05:34:01;11.27;;;9.10;;
76176;SDS011;64938;47.696;8.066;2023-04-03T05:36:27;12.70;;;8.77;;
76176;SDS011;64938;47.696;8.066;2023-04-03T05:38:53;10.93;;;9.23;;
76176;SDS011;64938;47.696;8.066;2023-04-03T05:41:21;11.80;;;8.27;;
76176;SDS011;64938;47.696;8.066;2023-04-03T05:43:50;9.40;;;7.37;;
76176;SDS011;64938;47.696;8.066;2023-04-03T05:46:16;8.63;;;7.37;;
76176;SDS011;64938;47.696;8.066;2023-04-03T05:48:45;9.20;;;7.83;;
76176;SDS011;64938;47.696;8.066;2023-04-03T05:51:15;11.07;;;9.47;;
76176;SDS011;64938;47.696;8.066;2023-04-03T05:53:43;9.77;;;8.13;;
76176;SDS011;64938;47.696;8.066;2023-04-03T05:56:09;10.20;;;8.57;;
76176;SDS011;64938;47.696;8.066;2023-04-03T05:58:34;9.47;;;7.80;;
76176;SDS011;64938;47.696;8.066;2023-04-03T06:01:00;9.97;;;7.83;;
76176;SDS011;64938;47.696;8.066;2023-04-03T06:03:26;8.43;;;7.30;;
76176;SDS011;64938;47.696;8.066;2023-04-03T06:05:52;9.40;;;7.43;;
76176;SDS011;64938;47.696;8.066;2023-04-03T06:08:18;8.07;;;7.13;;
76176;SDS011;64938;47.696;8.066;2023-04-03T06:10:44;9.87;;;7.93;;
76176;SDS011;64938;47.696;8.066;2023-04-03T06:13:10;8.93;;;7.63;;
76176;SDS011;64938;47.696;8.066;2023-04-03T06:15:37;9.47;;;7.40;;
76176;SDS011;64938;47.696;8.066;2023-04-03T06:18:03;9.30;;;7.27;;
76176;SDS011;64938;47.696;8.066;2023-04-03T06:20:29;10.70;;;7.83;;
76176;SDS011;64938;47.696;8.066;2023-04-03T06:22:56;8.20;;;7.10;;
76176;SDS011;64938;47.696;8.066;2023-04-03T06:25:22;11.07;;;8.27;;
76176;SDS011;64938;47.696;8.066;2023-04-03T06:27:48;12.17;;;8.13;;
76176;SDS011;64938;47.696;8.066;2023-04-03T06:30:13;10.67;;;8.43;;
76176;SDS011;64938;47.696;8.066;2023-04-03T06:32:39;10.73;;;8.50;;
76176;SDS011;64938;47.696;8.066;2023-04-03T06:35:05;10.83;;;8.80;;
76176;SDS011;64938;47.696;8.066;2023-04-03T06:37:31;12.87;;;10.93;;
76176;SDS011;64938;47.696;8.066;2023-04-03T06:39:58;10.70;;;9.30;;
76176;SDS011;64938;47.696;8.066;2023-04-03T06:42:25;13.43;;;9.73;;
76176;SDS011;64938;47.696;8.066;2023-04-03T06:44:51;12.50;;;10.47;;
76176;SDS011;64938;47.696;8.066;2023-04-03T06:47:17;13.27;;;11.00;;
76176;SDS011;64938;47.696;8.066;2023-04-03T06:49:44;13.27;;;10.37;;
76176;SDS011;64938;47.696;8.066;2023-04-03T06:52:09;15.80;;;11.60;;
76176;SDS011;64938;47.696;8.066;2023-04-03T06:54:37;13.43;;;9.93;;
76176;SDS011;64938;47.696;8.066;2023-04-03T06:57:03;12.93;;;10.17;;
76176;SDS011;64938;47.696;8.066;2023-04-03T06:59:29;12.40;;;9.20;;
76176;SDS011;64938;47.696;8.066;2023-04-03T07:01:54;11.30;;;9.00;;
76176;SDS011;64938;47.696;8.066;2023-04-03T07:04:20;12.00;;;9.30;;
76176;SDS011;64938;47.696;8.066;2023-04-03T07:06:46;11.10;;;9.23;;
76176;SDS011;64938;47.696;8.066;2023-04-03T07:09:13;12.30;;;9.57;;
76176;SDS011;64938;47.696;8.066;2023-04-03T07:11:39;10.17;;;8.00;;
76176;SDS011;64938;47.696;8.066;2023-04-03T07:14:05;12.67;;;9.00;;
76176;SDS011;64938;47.696;8.066;2023-04-03T07:16:33;11.63;;;9.00;;
76176;SDS011;64938;47.696;8.066;2023-04-03T07:19:00;11.43;;;9.00;;
76176;SDS011;64938;47.696;8.066;2023-04-03T07:21:27;11.57;;;9.77;;
76176;SDS011;64938;47.696;8.066;2023-04-03T07:23:53;11.20;;;8.50;;
76176;SDS011;64938;47.696;8.066;2023-04-03T07:26:19;11.03;;;9.20;;
76176;SDS011;64938;47.696;8.066;2023-04-03T07:28:46;11.13;;;9.00;;
76176;SDS011;64938;47.696;8.066;2023-04-03T07:31:13;10.57;;;8.40;;
76176;SDS011;64938;47.696;8.066;2023-04-03T07:33:40;10.20;;;8.37;;
76176;SDS011;64938;47.696;8.066;2023-04-03T07:36:06;10.40;;;9.00;;
76176;SDS011;64938;47.696;8.066;2023-04-03T07:38:34;10.70;;;8.90;;
76176;SDS011;64938;47.696;8.066;2023-04-03T07:41:00;9.63;;;8.13;;
76176;SDS011;64938;47.696;8.066;2023-04-03T07:43:26;9.80;;;8.33;;
76176;SDS011;64938;47.696;8.066;2023-04-03T07:45:52;11.37;;;8.13;;
76176;SDS011;64938;47.696;8.066;2023-04-03T07:48:23;10.10;;;8.40;;
76176;SDS011;64938;47.696;8.066;2023-04-03T07:50:49;8.93;;;7.60;;
76176;SDS011;64938;47.696;8.066;2023-04-03T07:53:17;9.70;;;8.47;;
76176;SDS011;64938;47.696;8.066;2023-04-03T07:55:45;9.00;;;7.80;;
76176;SDS011;64938;47.696;8.066;2023-04-03T07:58:13;8.30;;;7.40;;
76176;SDS011;64938;47.696;8.066;2023-04-03T08:00:40;10.40;;;7.90;;
76176;SDS011;64938;47.696;8.066;2023-04-03T08:03:06;9.23;;;8.10;;
76176;SDS011;64938;47.696;8.066;2023-04-03T08:05:37;10.00;;;7.73;;
76176;SDS011;64938;47.696;8.066;2023-04-03T08:08:04;10.10;;;8.07;;
76176;SDS011;64938;47.696;8.066;2023-04-03T08:10:31;9.17;;;7.43;;
76176;SDS011;64938;47.696;8.066;2023-04-03T08:12:56;8.80;;;7.90;;
76176;SDS011;64938;47.696;8.066;2023-04-03T08:15:22;9.20;;;7.10;;
76176;SDS011;64938;47.696;8.066;2023-04-03T08:17:48;8.70;;;7.80;;
76176;SDS011;64938;47.696;8.066;2023-04-03T08:20:14;8.60;;;7.20;;
76176;SDS011;64938;47.696;8.066;2023-04-03T08:22:39;10.53;;;8.37;;
76176;SDS011;64938;47.696;8.066;2023-04-03T08:25:05;9.70;;;7.93;;
76176;SDS011;64938;47.696;8.066;2023-04-03T08:27:31;8.30;;;7.40;;
76176;SDS011;64938;47.696;8.066;2023-04-03T08:29:57;7.20;;;6.50;;
76176;SDS011;64938;47.696;8.066;2023-04-03T08:32:23;9.03;;;8.10;;
76176;SDS011;64938;47.696;8.066;2023-04-03T08:34:49;7.27;;;6.53;;
76176;SDS011;64938;47.696;8.066;2023-04-03T08:37:15;8.50;;;7.03;;
76176;SDS011;64938;47.696;8.066;2023-04-03T08:39:41;7.57;;;6.57;;
76176;SDS011;64938;47.696;8.066;2023-04-03T08:44:59;7.03;;;6.33;;
76176;SDS011;64938;47.696;8.066;2023-04-03T08:48:41;7.50;;;6.50;;
76176;SDS011;64938;47.696;8.066;2023-04-03T08:50:19;7.40;;;6.17;;
76176;SDS011;64938;47.696;8.066;2023-04-03T08:52:48;6.43;;;5.80;;
76176;SDS011;64938;47.696;8.066;2023-04-03T08:55:24;6.03;;;5.47;;
76176;SDS011;64938;47.696;8.066;2023-04-03T08:58:01;5.97;;;5.43;;
76176;SDS011;64938;47.696;8.066;2023-04-03T09:00:30;5.97;;;4.60;;
76176;SDS011;64938;47.696;8.066;2023-04-03T09:03:03;4.97;;;4.47;;
76176;SDS011;64938;47.696;8.066;2023-04-03T09:05:32;5.70;;;3.70;;
76176;SDS011;64938;47.696;8.066;2023-04-03T09:08:07;4.03;;;3.73;;
76176;SDS011;64938;47.696;8.066;2023-04-03T09:10:39;4.70;;;4.30;;
76176;SDS011;64938;47.696;8.066;2023-04-03T09:13:11;4.50;;;4.10;;
76176;SDS011;64938;47.696;8.066;2023-04-03T09:15:43;5.17;;;4.17;;
76176;SDS011;64938;47.696;8.066;2023-04-03T09:18:13;4.27;;;3.87;;
76176;SDS011;64938;47.696;8.066;2023-04-03T09:20:48;4.60;;;4.00;;
76176;SDS011;64938;47.696;8.066;2023-04-03T09:25:56;4.00;;;3.60;;
76176;SDS011;64938;47.696;8.066;2023-04-03T09:28:27;5.20;;;4.50;;
76176;SDS011;64938;47.696;8.066;2023-04-03T09:30:53;4.80;;;4.40;;
76176;SDS011;64938;47.696;8.066;2023-04-03T09:33:19;4.40;;;3.67;;
76176;SDS011;64938;47.696;8.066;2023-04-03T09:35:46;5.50;;;4.60;;
76176;SDS011;64938;47.696;8.066;2023-04-03T09:40:39;4.10;;;3.70;;
76176;SDS011;64938;47.696;8.066;2023-04-03T09:43:24;4.63;;;4.23;;
76176;SDS011;64938;47.696;8.066;2023-04-03T09:45:52;4.73;;;4.20;;
76176;SDS011;64938;47.696;8.066;2023-04-03T09:48:19;3.50;;;3.20;;
76176;SDS011;64938;47.696;8.066;2023-04-03T09:55:59;4.47;;;3.73;;
76176;SDS011;64938;47.696;8.066;2023-04-03T09:58:27;3.63;;;3.33;;
76176;SDS011;64938;47.696;8.066;2023-04-03T10:00:56;3.20;;;3.00;;
76176;SDS011;64938;47.696;8.066;2023-04-03T10:03:24;4.00;;;3.50;;
76176;SDS011;64938;47.696;8.066;2023-04-03T10:05:53;3.73;;;3.33;;
76176;SDS011;64938;47.696;8.066;2023-04-03T10:08:22;4.10;;;3.77;;
76176;SDS011;64938;47.696;8.066;2023-04-03T10:13:57;3.00;;;2.80;;
76176;SDS011;64938;47.696;8.066;2023-04-03T10:16:27;3.43;;;3.13;;
76176;SDS011;64938;47.696;8.066;2023-04-03T10:29:28;3.20;;;3.00;;
76176;SDS011;64938;47.696;8.066;2023-04-03T10:35:10;2.90;;;2.70;;
76176;SDS011;64938;47.696;8.066;2023-04-03T10:45:46;3.17;;;2.87;;
76176;SDS011;64938;47.696;8.066;2023-04-03T10:48:28;3.20;;;3.00;;
76176;SDS011;64938;47.696;8.066;2023-04-03T10:53:39;3.63;;;3.33;;
76176;SDS011;64938;47.696;8.066;2023-04-03T10:59:05;3.80;;;3.50;;
76176;SDS011;64938;47.696;8.066;2023-04-03T11:01:41;4.13;;;3.07;;
76176;SDS011;64938;47.696;8.066;2023-04-03T11:04:10;3.50;;;3.20;;
76176;SDS011;64938;47.696;8.066;2023-04-03T11:06:43;3.50;;;3.20;;
76176;SDS011;64938;47.696;8.066;2023-04-03T11:11:42;3.30;;;2.87;;
76176;SDS011;64938;47.696;8.066;2023-04-03T11:14:14;4.10;;;3.70;;
76176;SDS011;64938;47.696;8.066;2023-04-03T11:16:45;3.87;;;3.47;;
76176;SDS011;64938;47.696;8.066;2023-04-03T11:19:16;4.43;;;4.03;;
76176;SDS011;64938;47.696;8.066;2023-04-03T11:21:51;6.80;;;5.57;;
76176;SDS011;64938;47.696;8.066;2023-04-03T11:24:24;3.87;;;3.50;;
76176;SDS011;64938;47.696;8.066;2023-04-03T11:26:51;3.80;;;3.50;;
76176;SDS011;64938;47.696;8.066;2023-04-03T11:29:20;3.87;;;3.57;;
76176;SDS011;64938;47.696;8.066;2023-04-03T11:34:19;3.40;;;3.10;;
76176;SDS011;64938;47.696;8.066;2023-04-03T11:37:13;3.43;;;3.17;;
76176;SDS011;64938;47.696;8.066;2023-04-03T11:40:00;3.60;;;3.30;;
76176;SDS011;64938;47.696;8.066;2023-04-03T11:42:37;3.70;;;3.40;;
76176;SDS011;64938;47.696;8.066;2023-04-03T11:47:54;3.50;;;3.20;;
76176;SDS011;64938;47.696;8.066;2023-04-03T11:58:25;3.83;;;3.43;;
76176;SDS011;64938;47.696;8.066;2023-04-03T12:05:52;3.80;;;3.50;;
76176;SDS011;64938;47.696;8.066;2023-04-03T12:08:51;5.10;;;3.70;;
76176;SDS011;64938;47.696;8.066;2023-04-03T12:14:03;4.33;;;3.93;;
76176;SDS011;64938;47.696;8.066;2023-04-03T12:19:04;3.50;;;3.20;;
76176;SDS011;64938;47.696;8.066;2023-04-03T12:24:24;4.47;;;3.80;;
76176;SDS011;64938;47.696;8.066;2023-04-03T12:29:21;3.53;;;3.23;;
76176;SDS011;64938;47.696;8.066;2023-04-03T12:35:14;4.00;;;3.70;;
76176;SDS011;64938;47.696;8.066;2023-04-03T12:37:35;5.00;;;4.07;;
76176;SDS011;64938;47.696;8.066;2023-04-03T12:40:22;4.40;;;4.03;;
76176;SDS011;64938;47.696;8.066;2023-04-03T12:45:48;4.40;;;4.00;;
76176;SDS011;64938;47.696;8.066;2023-04-03T12:48:22;4.10;;;3.70;;
76176;SDS011;64938;47.696;8.066;2023-04-03T12:50:51;4.40;;;4.00;;
76176;SDS011;64938;47.696;8.066;2023-04-03T12:53:20;4.00;;;3.70;;
76176;SDS011;64938;47.696;8.066;2023-04-03T12:55:51;4.10;;;3.77;;
76176;SDS011;64938;47.696;8.066;2023-04-03T12:58:27;5.27;;;3.57;;
76176;SDS011;64938;47.696;8.066;2023-04-03T13:03:39;4.10;;;3.70;;
76176;SDS011;64938;47.696;8.066;2023-04-03T13:06:05;4.10;;;3.70;;
76176;SDS011;64938;47.696;8.066;2023-04-03T13:08:32;4.00;;;3.40;;
76176;SDS011;64938;47.696;8.066;2023-04-03T13:10:59;4.30;;;3.83;;
76176;SDS011;64938;47.696;8.066;2023-04-03T13:13:27;5.03;;;4.00;;
76176;SDS011;64938;47.696;8.066;2023-04-03T13:15:53;4.70;;;4.30;;
76176;SDS011;64938;47.696;8.066;2023-04-03T13:18:24;4.13;;;3.73;;
76176;SDS011;64938;47.696;8.066;2023-04-03T13:21:01;4.30;;;3.97;;
76176;SDS011;64938;47.696;8.066;2023-04-03T13:23:45;4.20;;;3.80;;
76176;SDS011;64938;47.696;8.066;2023-04-03T13:26:12;4.00;;;3.60;;
76176;SDS011;64938;47.696;8.066;2023-04-03T13:28:41;4.60;;;4.20;;
76176;SDS011;64938;47.696;8.066;2023-04-03T13:33:36;4.83;;;4.37;;
76176;SDS011;64938;47.696;8.066;2023-04-03T13:36:04;3.93;;;3.63;;
76176;SDS011;64938;47.696;8.066;2023-04-03T13:38:33;5.80;;;5.20;;
76176;SDS011;64938;47.696;8.066;2023-04-03T13:41:03;4.20;;;3.80;;
76176;SDS011;64938;47.696;8.066;2023-04-03T13:43:32;4.47;;;4.07;;
76176;SDS011;64938;47.696;8.066;2023-04-03T13:46:02;4.23;;;3.80;;
76176;SDS011;64938;47.696;8.066;2023-04-03T13:48:40;4.37;;;3.30;;
76176;SDS011;64938;47.696;8.066;2023-04-03T13:53:42;3.27;;;2.97;;
76176;SDS011;64938;47.696;8.066;2023-04-03T14:01:44;3.83;;;3.20;;
76176;SDS011;64938;47.696;8.066;2023-04-03T14:04:16;4.40;;;4.00;;
76176;SDS011;64938;47.696;8.066;2023-04-03T14:06:45;3.67;;;3.30;;
76176;SDS011;64938;47.696;8.066;2023-04-03T14:09:12;3.60;;;3.30;;
76176;SDS011;64938;47.696;8.066;2023-04-03T14:11:40;3.40;;;3.10;;
76176;SDS011;64938;47.696;8.066;2023-04-03T14:14:10;3.50;;;3.20;;
76176;SDS011;64938;47.696;8.066;2023-04-03T14:16:39;4.10;;;3.33;;
76176;SDS011;64938;47.696;8.066;2023-04-03T14:19:07;3.97;;;3.20;;
76176;SDS011;64938;47.696;8.066;2023-04-03T14:21:35;3.43;;;3.13;;
76176;SDS011;64938;47.696;8.066;2023-04-03T14:24:01;3.43;;;3.00;;
76176;SDS011;64938;47.696;8.066;2023-04-03T14:26:28;3.40;;;3.10;;
76176;SDS011;64938;47.696;8.066;2023-04-03T14:28:55;3.10;;;2.90;;
76176;SDS011;64938;47.696;8.066;2023-04-03T14:31:21;3.57;;;3.27;;
76176;SDS011;64938;47.696;8.066;2023-04-03T14:33:48;3.60;;;3.30;;
76176;SDS011;64938;47.696;8.066;2023-04-03T14:36:15;3.90;;;3.10;;
76176;SDS011;64938;47.696;8.066;2023-04-03T14:38:41;3.67;;;3.37;;
76176;SDS011;64938;47.696;8.066;2023-04-03T14:41:10;3.93;;;3.53;;
76176;SDS011;64938;47.696;8.066;2023-04-03T14:43:37;4.20;;;3.80;;
76176;SDS011;64938;47.696;8.066;2023-04-03T14:46:04;4.33;;;3.93;;
76176;SDS011;64938;47.696;8.066;2023-04-03T14:48:30;4.10;;;3.80;;
76176;SDS011;64938;47.696;8.066;2023-04-03T14:50:56;5.50;;;3.80;;
76176;SDS011;64938;47.696;8.066;2023-04-03T14:53:22;4.20;;;3.87;;
76176;SDS011;64938;47.696;8.066;2023-04-03T14:55:50;4.77;;;4.00;;
76176;SDS011;64938;47.696;8.066;2023-04-03T14:58:17;3.83;;;3.53;;
76176;SDS011;64938;47.696;8.066;2023-04-03T15:00:44;4.23;;;3.60;;
76176;SDS011;64938;47.696;8.066;2023-04-03T15:03:14;4.00;;;3.37;;
76176;SDS011;64938;47.696;8.066;2023-04-03T15:05:43;3.80;;;3.50;;
76176;SDS011;64938;47.696;8.066;2023-04-03T15:08:16;4.60;;;3.90;;
76176;SDS011;64938;47.696;8.066;2023-04-03T15:10:47;4.73;;;3.90;;
76176;SDS011;64938;47.696;8.066;2023-04-03T15:13:14;4.10;;;3.80;;
76176;SDS011;64938;47.696;8.066;2023-04-03T15:15:40;5.10;;;4.30;;
76176;SDS011;64938;47.696;8.066;2023-04-03T15:18:07;4.47;;;4.07;;
76176;SDS011;64938;47.696;8.066;2023-04-03T15:20:37;4.60;;;4.20;;
76176;SDS011;64938;47.696;8.066;2023-04-03T15:23:03;4.13;;;3.80;;
76176;SDS011;64938;47.696;8.066;2023-04-03T15:25:32;4.33;;;3.93;;
76176;SDS011;64938;47.696;8.066;2023-04-03T15:27:59;3.77;;;3.47;;
76176;SDS011;64938;47.696;8.066;2023-04-03T15:30:25;4.40;;;4.00;;
76176;SDS011;64938;47.696;8.066;2023-04-03T15:32:51;4.10;;;3.80;;
76176;SDS011;64938;47.696;8.066;2023-04-03T15:35:18;4.07;;;3.77;;
76176;SDS011;64938;47.696;8.066;2023-04-03T15:37:44;3.83;;;3.53;;
76176;SDS011;64938;47.696;8.066;2023-04-03T15:40:11;5.00;;;3.73;;
76176;SDS011;64938;47.696;8.066;2023-04-03T15:42:37;4.27;;;3.90;;
76176;SDS011;64938;47.696;8.066;2023-04-03T15:45:05;4.20;;;3.90;;
76176;SDS011;64938;47.696;8.066;2023-04-03T15:47:31;4.43;;;3.70;;
76176;SDS011;64938;47.696;8.066;2023-04-03T15:50:03;4.23;;;3.83;;
76176;SDS011;64938;47.696;8.066;2023-04-03T15:52:34;4.60;;;4.20;;
76176;SDS011;64938;47.696;8.066;2023-04-03T15:55:00;4.10;;;3.57;;
76176;SDS011;64938;47.696;8.066;2023-04-03T15:57:26;6.37;;;4.40;;
76176;SDS011;64938;47.696;8.066;2023-04-03T15:59:52;5.00;;;4.47;;
76176;SDS011;64938;47.696;8.066;2023-04-03T16:02:18;4.23;;;3.80;;
76176;SDS011;64938;47.696;8.066;2023-04-03T16:04:44;5.50;;;4.30;;
76176;SDS011;64938;47.696;8.066;2023-04-03T16:07:10;4.10;;;3.70;;
76176;SDS011;64938;47.696;8.066;2023-04-03T16:09:36;4.73;;;4.23;;
76176;SDS011;64938;47.696;8.066;2023-04-03T16:12:02;3.87;;;3.57;;
76176;SDS011;64938;47.696;8.066;2023-04-03T16:14:29;5.70;;;4.50;;
76176;SDS011;64938;47.696;8.066;2023-04-03T16:16:58;4.43;;;4.03;;
76176;SDS011;64938;47.696;8.066;2023-04-03T16:19:24;4.10;;;3.70;;
76176;SDS011;64938;47.696;8.066;2023-04-03T16:21:50;4.60;;;4.20;;
76176;SDS011;64938;47.696;8.066;2023-04-03T16:24:16;4.73;;;4.27;;
76176;SDS011;64938;47.696;8.066;2023-04-03T16:26:42;4.07;;;3.70;;
76176;SDS011;64938;47.696;8.066;2023-04-03T16:29:11;4.93;;;4.47;;
76176;SDS011;64938;47.696;8.066;2023-04-03T16:31:46;4.70;;;4.30;;